createdAt,value
2022-08-17T00:00:34.472Z,25.94
2022-08-17T00:03:26.166Z,25.90
2022-08-17T00:06:03.178Z,25.81
2022-08-17T00:08:38.219Z,25.78
2022-08-17T00:11:10.210Z,25.67
2022-08-17T00:13:47.164Z,25.56
2022-08-17T00:16:51.953Z,25.51
2022-08-17T00:19:15.125Z,25.46
2022-08-17T00:22:33.121Z,25.44
2022-08-17T00:24:34.237Z,25.47
2022-08-17T00:27:01.422Z,25.43
2022-08-17T00:29:28.287Z,25.39
2022-08-17T00:31:55.357Z,25.37
2022-08-17T00:34:22.243Z,25.32
2022-08-17T00:36:49.069Z,25.24
2022-08-17T00:39:16.092Z,25.20
2022-08-17T00:41:43.297Z,25.15
2022-08-17T00:44:12.193Z,25.16
2022-08-17T00:46:42.436Z,25.16
2022-08-17T00:49:12.805Z,25.12
2022-08-17T00:52:11.693Z,25.06
2022-08-17T00:54:43.416Z,25.00
2022-08-17T00:57:30.803Z,24.97
2022-08-17T01:00:07.170Z,24.96
2022-08-17T01:02:43.192Z,24.87
2022-08-17T01:05:23.975Z,24.84
2022-08-17T01:07:53.684Z,24.83
2022-08-17T01:10:59.259Z,24.83
2022-08-17T01:13:28.680Z,24.77
2022-08-17T01:16:04.580Z,24.71
2022-08-17T01:18:32.881Z,24.68
2022-08-17T01:21:24.601Z,24.65
2022-08-17T01:23:51.711Z,24.66
2022-08-17T01:26:20.190Z,24.65
2022-08-17T01:28:54.542Z,24.62
2022-08-17T01:31:28.699Z,24.59
2022-08-17T01:34:00.269Z,24.58
2022-08-17T01:36:29.024Z,24.57
2022-08-17T01:38:56.280Z,24.50
2022-08-17T01:41:24.530Z,24.47
2022-08-17T01:43:59.042Z,24.49
2022-08-17T01:46:31.228Z,24.48
2022-08-17T01:48:58.653Z,24.43
2022-08-17T01:51:32.927Z,24.37
2022-08-17T01:54:15.183Z,24.32
2022-08-17T01:56:47.774Z,24.34
2022-08-17T01:59:18.278Z,24.31
2022-08-17T02:01:47.202Z,24.29
2022-08-17T02:04:15.659Z,24.26
2022-08-17T02:06:53.698Z,24.20
2022-08-17T02:09:29.935Z,24.18
2022-08-17T02:12:37.391Z,24.12
2022-08-17T02:14:49.143Z,24.10
2022-08-17T02:17:16.223Z,24.14
2022-08-17T02:19:43.287Z,24.12
2022-08-17T02:22:10.452Z,24.11
2022-08-17T02:24:59.869Z,24.08
2022-08-17T02:27:26.553Z,24.07
2022-08-17T02:29:53.696Z,24.06
2022-08-17T02:32:27.821Z,24.01
2022-08-17T02:34:59.838Z,23.96
2022-08-17T02:37:29.897Z,23.95
2022-08-17T02:39:58.784Z,23.91
2022-08-17T02:42:39.852Z,23.93
2022-08-17T02:45:18.767Z,23.91
2022-08-17T02:47:47.088Z,23.85
2022-08-17T02:50:18.435Z,23.78
2022-08-17T02:52:55.258Z,23.76
2022-08-17T02:55:37.410Z,23.74
2022-08-17T02:58:05.400Z,23.76
2022-08-17T03:00:42.158Z,23.76
2022-08-17T03:03:13.751Z,23.72
2022-08-17T03:05:40.805Z,23.63
2022-08-17T03:08:13.118Z,23.59
2022-08-17T03:10:41.614Z,23.56
2022-08-17T03:13:09.075Z,23.55
2022-08-17T03:15:36.092Z,23.53
2022-08-17T03:18:07.452Z,23.50
2022-08-17T03:20:46.893Z,23.48
2022-08-17T03:23:13.904Z,23.44
2022-08-17T03:25:44.087Z,23.38
2022-08-17T03:28:12.155Z,23.37
2022-08-17T03:30:40.596Z,23.33
2022-08-17T03:33:12.290Z,23.31
2022-08-17T03:35:41.063Z,23.29
2022-08-17T03:38:11.329Z,23.23
2022-08-17T03:40:56.909Z,23.17
2022-08-17T03:43:30.910Z,23.12
2022-08-17T03:46:34.549Z,23.11
2022-08-17T03:49:24.720Z,23.07
2022-08-17T03:52:11.703Z,23.05
2022-08-17T03:54:57.886Z,22.97
2022-08-17T03:57:26.103Z,22.93
2022-08-17T03:59:55.257Z,22.91
2022-08-17T04:02:30.190Z,22.88
2022-08-17T04:04:58.568Z,22.89
2022-08-17T04:07:29.743Z,22.91
2022-08-17T04:09:58.171Z,22.85
2022-08-17T04:12:30.819Z,22.81
2022-08-17T04:14:58.650Z,22.81
2022-08-17T04:17:28.504Z,22.78
2022-08-17T04:19:56.828Z,22.76
2022-08-17T04:22:33.343Z,22.75
2022-08-17T04:25:08.653Z,22.77
2022-08-17T04:27:36.190Z,22.80
2022-08-17T04:30:07.287Z,22.80
2022-08-17T04:33:06.270Z,22.79
2022-08-17T04:35:48.295Z,22.75
2022-08-17T04:38:21.292Z,22.76
2022-08-17T04:41:07.891Z,22.71
2022-08-17T04:43:37.831Z,22.71
2022-08-17T04:46:10.710Z,22.67
2022-08-17T04:48:42.869Z,22.71
2022-08-17T04:51:30.436Z,22.75
2022-08-17T04:54:02.726Z,22.81
2022-08-17T04:56:31.632Z,22.82
2022-08-17T04:59:05.634Z,22.82
2022-08-17T05:01:35.869Z,22.74
2022-08-17T05:04:33.565Z,22.71
2022-08-17T05:06:59.091Z,22.74
2022-08-17T05:09:27.176Z,22.81
2022-08-17T05:11:55.324Z,22.87
2022-08-17T05:14:32.463Z,22.90
2022-08-17T05:17:01.338Z,22.84
2022-08-17T05:19:28.968Z,22.85
2022-08-17T05:21:55.755Z,22.94
2022-08-17T05:24:42.673Z,23.03
2022-08-17T05:27:09.658Z,23.07
2022-08-17T05:29:41.905Z,23.10
2022-08-17T05:32:39.571Z,23.06
2022-08-17T05:35:00.362Z,23.09
2022-08-17T05:37:27.584Z,23.18
2022-08-17T05:39:54.726Z,23.23
2022-08-17T05:42:22.151Z,23.25
2022-08-17T05:44:49.033Z,23.24
2022-08-17T05:47:16.356Z,23.29
2022-08-17T05:49:43.461Z,23.36
2022-08-17T05:52:26.420Z,23.39
2022-08-17T05:55:18.051Z,23.34
2022-08-17T05:57:57.735Z,23.25
2022-08-17T06:00:37.055Z,23.24
2022-08-17T06:03:43.203Z,23.23
2022-08-17T06:06:48.092Z,23.16
2022-08-17T06:09:45.718Z,23.13
2022-08-17T06:13:03.061Z,23.07
2022-08-17T06:16:02.027Z,23.14
2022-08-17T06:18:48.660Z,23.23
2022-08-17T06:21:19.911Z,23.28
2022-08-17T06:24:08.017Z,23.32
2022-08-17T06:26:43.448Z,23.40
2022-08-17T06:29:24.871Z,23.42
2022-08-17T06:31:52.055Z,23.46
2022-08-17T06:34:21.743Z,23.51
2022-08-17T06:37:27.430Z,23.48
2022-08-17T06:40:12.767Z,23.49
2022-08-17T06:43:05.860Z,23.49
2022-08-17T06:45:51.725Z,23.50
2022-08-17T06:49:11.695Z,23.54
2022-08-17T06:51:51.525Z,23.61
2022-08-17T06:54:41.431Z,23.70
2022-08-17T06:57:24.856Z,23.73
2022-08-17T07:00:04.275Z,23.73
2022-08-17T07:03:01.209Z,23.84
2022-08-17T07:05:47.681Z,23.98
2022-08-17T07:08:38.353Z,23.99
2022-08-17T07:11:20.982Z,24.03
2022-08-17T07:14:01.395Z,24.12
2022-08-17T07:16:56.255Z,24.20
2022-08-17T07:19:31.855Z,24.26
2022-08-17T07:22:10.710Z,24.32
2022-08-17T07:25:00.357Z,24.42
2022-08-17T07:27:46.311Z,24.46
2022-08-17T07:30:28.399Z,24.51
2022-08-17T07:33:13.722Z,24.58
2022-08-17T07:35:43.886Z,24.68
2022-08-17T07:38:31.435Z,24.75
2022-08-17T07:41:02.208Z,24.80
2022-08-17T07:43:40.151Z,24.83
2022-08-17T07:47:05.351Z,24.90
2022-08-17T07:49:32.251Z,25.04
2022-08-17T07:52:47.885Z,25.13
2022-08-17T07:54:58.668Z,25.23
2022-08-17T07:57:36.146Z,25.31
2022-08-17T08:00:16.315Z,25.36
2022-08-17T08:02:59.639Z,25.43
2022-08-17T08:05:49.879Z,25.52
2022-08-17T08:08:42.691Z,25.60
2022-08-17T08:11:15.461Z,25.67
2022-08-17T08:13:45.793Z,25.74
2022-08-17T08:16:30.907Z,25.82
2022-08-17T08:19:01.713Z,25.92
2022-08-17T08:21:52.227Z,25.97
2022-08-17T08:24:45.759Z,26.02
2022-08-17T08:27:35.915Z,26.10
2022-08-17T08:30:19.675Z,26.17
2022-08-17T08:33:44.025Z,26.25
2022-08-17T08:36:57.139Z,26.35
2022-08-17T08:40:01.876Z,26.44
2022-08-17T08:43:09.332Z,26.56
2022-08-17T08:46:25.105Z,26.69
2022-08-17T08:53:16.170Z,27.03
2022-08-17T08:55:59.132Z,27.09
2022-08-17T08:58:41.251Z,27.18
2022-08-17T09:01:25.571Z,27.24
2022-08-17T09:04:24.568Z,27.32
2022-08-17T09:07:29.575Z,27.44
2022-08-17T09:10:25.514Z,27.50
2022-08-17T09:13:16.916Z,27.56
2022-08-17T09:15:57.377Z,27.61
2022-08-17T09:19:02.955Z,27.67
2022-08-17T09:21:45.778Z,27.73
2022-08-17T09:24:57.157Z,27.78
2022-08-17T09:27:35.371Z,27.86
2022-08-17T09:30:09.659Z,27.96
2022-08-17T09:32:44.276Z,28.03
2022-08-17T09:35:32.902Z,28.09
2022-08-17T09:38:34.473Z,28.15
2022-08-17T09:41:29.117Z,28.23
2022-08-17T09:44:25.138Z,28.34
2022-08-17T09:47:05.675Z,28.42
2022-08-17T09:49:47.072Z,28.49
2022-08-17T09:52:28.358Z,28.53
2022-08-17T09:54:59.385Z,28.62
2022-08-17T09:57:50.415Z,28.70
2022-08-17T10:00:34.685Z,28.77
2022-08-17T10:03:22.815Z,28.80
2022-08-17T10:06:21.721Z,28.85
2022-08-17T10:09:18.473Z,28.89
2022-08-17T10:12:30.277Z,28.96
2022-08-17T10:15:07.963Z,28.97
2022-08-17T10:18:01.356Z,29.01
2022-08-17T10:20:42.949Z,29.09
2022-08-17T10:23:48.916Z,29.15
2022-08-17T10:26:28.158Z,29.07
2022-08-17T10:29:24.472Z,29.01
2022-08-17T10:32:09.194Z,28.97
2022-08-17T10:35:04.196Z,29.05
2022-08-17T10:37:37.624Z,29.05
2022-08-17T10:40:32.492Z,29.07
2022-08-17T10:43:20.654Z,29.15
2022-08-17T10:46:09.234Z,29.20
2022-08-17T10:49:13.658Z,29.19
2022-08-17T10:51:42.071Z,29.20
2022-08-17T10:54:24.403Z,29.18
2022-08-17T10:56:55.274Z,29.21
2022-08-17T10:59:37.127Z,29.33
2022-08-17T11:02:14.806Z,29.43
2022-08-17T11:04:59.903Z,29.45
2022-08-17T11:07:53.979Z,29.56
2022-08-17T11:10:49.910Z,29.60
2022-08-17T11:13:49.596Z,29.56
2022-08-17T11:16:48.051Z,29.50
2022-08-17T11:20:12.656Z,29.47
2022-08-17T11:23:03.863Z,29.44
2022-08-17T11:25:46.963Z,29.48
2022-08-17T11:28:23.748Z,29.47
2022-08-17T11:31:05.566Z,29.50
2022-08-17T11:33:36.848Z,29.53
2022-08-17T11:36:46.463Z,29.55
2022-08-17T11:39:13.364Z,29.63
2022-08-17T11:42:00.108Z,29.70
2022-08-17T11:44:58.780Z,29.68
2022-08-17T11:48:27.824Z,29.72
2022-08-17T11:51:36.447Z,29.71
2022-08-17T11:57:02.254Z,29.69
2022-08-17T11:59:36.486Z,29.73
2022-08-17T12:02:35.048Z,29.75
2022-08-17T12:05:16.717Z,29.77
2022-08-17T12:07:56.259Z,29.78
2022-08-17T12:10:32.012Z,29.82
2022-08-17T12:13:10.878Z,29.87
2022-08-17T12:15:49.027Z,29.95
2022-08-17T12:18:49.790Z,29.99
2022-08-17T12:21:23.653Z,30.03
2022-08-17T12:24:37.578Z,30.05
2022-08-17T12:27:09.438Z,30.19
2022-08-17T12:29:42.731Z,30.11
2022-08-17T12:32:18.286Z,30.26
2022-08-17T12:34:49.375Z,30.27
2022-08-17T12:37:26.215Z,30.30
2022-08-17T12:40:17.513Z,30.34
2022-08-17T12:43:00.906Z,30.42
2022-08-17T12:45:36.544Z,30.42
2022-08-17T12:48:21.845Z,30.38
2022-08-17T12:50:50.901Z,30.43
2022-08-17T12:53:30.093Z,30.55
2022-08-17T12:56:00.305Z,30.53
2022-08-17T12:58:36.809Z,30.62
2022-08-17T13:01:15.309Z,30.70
2022-08-17T13:03:49.397Z,30.81
2022-08-17T13:06:36.609Z,30.92
2022-08-17T13:09:40.284Z,30.97
2022-08-17T13:12:08.149Z,31.00
2022-08-17T13:14:35.442Z,31.07
2022-08-17T13:17:09.643Z,31.09
2022-08-17T13:19:50.878Z,31.06
2022-08-17T13:22:25.031Z,31.03
2022-08-17T13:24:58.878Z,30.96
2022-08-17T13:27:29.022Z,30.92
2022-08-17T13:30:02.296Z,30.88
2022-08-17T13:32:48.672Z,30.89
2022-08-17T13:35:39.175Z,30.89
2022-08-17T13:38:49.539Z,30.88
2022-08-17T13:41:37.366Z,30.85
2022-08-17T13:44:39.436Z,30.80
2022-08-17T13:47:18.981Z,30.75
2022-08-17T13:49:49.040Z,30.74
2022-08-17T13:52:39.105Z,30.74
2022-08-17T13:55:18.850Z,30.77
2022-08-17T13:57:50.489Z,30.84
2022-08-17T14:00:36.720Z,30.90
2022-08-17T14:03:05.805Z,30.96
2022-08-17T14:05:33.848Z,31.00
2022-08-17T14:08:06.416Z,31.07
2022-08-17T14:10:36.470Z,31.07
2022-08-17T14:13:05.686Z,31.18
2022-08-17T14:15:55.635Z,31.22
2022-08-17T14:18:55.578Z,31.20
2022-08-17T14:21:09.752Z,31.23
2022-08-17T14:23:37.868Z,31.27
2022-08-17T14:26:05.571Z,31.29
2022-08-17T14:28:32.654Z,31.36
2022-08-17T14:31:01.247Z,31.43
2022-08-17T14:33:29.079Z,31.50
2022-08-17T14:35:57.669Z,31.55
2022-08-17T14:38:24.897Z,31.56
2022-08-17T14:40:52.608Z,31.59
2022-08-17T14:43:20.954Z,31.61
2022-08-17T14:45:47.887Z,31.60
2022-08-17T14:48:14.893Z,31.59
2022-08-17T14:50:44.268Z,31.58
2022-08-17T14:53:16.145Z,31.57
2022-08-17T14:55:45.816Z,31.56
2022-08-17T14:58:14.086Z,31.53
2022-08-17T15:00:43.023Z,31.54
2022-08-17T15:03:11.493Z,31.58
2022-08-17T15:05:39.356Z,31.59
2022-08-17T15:08:06.840Z,31.60
2022-08-17T15:10:34.436Z,31.61
2022-08-17T15:13:01.973Z,31.64
2022-08-17T15:15:30.059Z,31.63
2022-08-17T15:17:58.256Z,31.65
2022-08-17T15:20:29.870Z,31.65
2022-08-17T15:22:58.966Z,31.63
2022-08-17T15:25:31.910Z,31.65
2022-08-17T15:28:01.097Z,31.68
2022-08-17T15:30:29.056Z,31.70
2022-08-17T15:33:01.983Z,31.76
2022-08-17T15:35:33.286Z,31.76
2022-08-17T15:38:11.672Z,31.74
2022-08-17T15:40:44.868Z,31.79
2022-08-17T15:43:32.493Z,31.82
2022-08-17T15:46:12.290Z,31.86
2022-08-17T15:48:42.756Z,31.86
2022-08-17T15:51:24.119Z,31.86
2022-08-17T15:54:04.589Z,31.85
2022-08-17T15:56:47.019Z,31.86
2022-08-17T15:59:13.935Z,31.85
2022-08-17T16:03:06.716Z,31.88
2022-08-17T16:04:30.685Z,32.01
2022-08-17T16:07:00.003Z,32.06
2022-08-17T16:09:27.572Z,32.09
2022-08-17T16:11:56.109Z,32.13
2022-08-17T16:14:32.441Z,32.24
2022-08-17T16:17:02.881Z,32.54
2022-08-17T16:19:29.706Z,32.85
2022-08-17T16:21:56.759Z,32.99
2022-08-17T16:24:23.810Z,33.14
2022-08-17T16:26:50.788Z,33.19
2022-08-17T16:29:17.909Z,33.09
2022-08-17T16:31:44.910Z,32.99
2022-08-17T16:34:16.400Z,32.89
2022-08-17T16:36:55.779Z,32.78
2022-08-17T16:39:27.174Z,32.61
2022-08-17T16:41:55.974Z,32.48
2022-08-17T16:44:23.020Z,32.34
2022-08-17T16:46:50.451Z,32.22
2022-08-17T16:49:35.728Z,32.10
2022-08-17T16:52:10.691Z,32.02
2022-08-17T16:54:43.760Z,31.94
2022-08-17T16:57:17.565Z,31.84
2022-08-17T16:59:48.093Z,31.81
2022-08-17T17:02:24.417Z,31.81
2022-08-17T17:05:42.945Z,31.82
2022-08-17T17:08:33.908Z,31.77
2022-08-17T17:11:13.823Z,31.69
2022-08-17T17:13:56.862Z,31.62
2022-08-17T17:16:35.922Z,31.56
2022-08-17T17:19:34.174Z,31.52
2022-08-17T17:22:45.223Z,31.44
2022-08-17T17:25:45.238Z,31.38
2022-08-17T17:28:39.172Z,31.34
2022-08-17T17:31:15.653Z,31.28
2022-08-17T17:33:52.618Z,31.23
2022-08-17T17:36:39.740Z,31.15
2022-08-17T17:39:44.144Z,31.10
2022-08-17T17:42:19.982Z,31.04
2022-08-17T17:44:59.772Z,30.99
2022-08-17T17:47:29.361Z,30.94
2022-08-17T17:49:56.290Z,30.91
2022-08-17T17:52:32.360Z,30.83
2022-08-17T17:55:17.290Z,30.77
2022-08-17T17:58:20.755Z,30.71
2022-08-17T18:01:00.534Z,30.67
2022-08-17T18:04:17.028Z,30.61
2022-08-17T18:07:28.696Z,30.54
2022-08-17T18:10:30.090Z,30.48
2022-08-17T18:13:17.762Z,30.41
2022-08-17T18:15:52.226Z,30.38
2022-08-17T18:18:37.791Z,30.33
2022-08-17T18:21:38.240Z,30.27
2022-08-17T18:24:10.524Z,30.23
2022-08-17T18:27:02.301Z,30.18
2022-08-17T18:29:45.642Z,30.13
2022-08-17T18:32:25.740Z,30.08
2022-08-17T18:35:09.194Z,30.03
2022-08-17T18:38:20.373Z,29.96
2022-08-17T18:41:03.954Z,29.92
2022-08-17T18:43:52.933Z,29.87
2022-08-17T18:46:30.061Z,29.81
2022-08-17T18:49:07.498Z,29.78
2022-08-17T18:51:43.295Z,29.73
2022-08-17T18:54:24.034Z,29.67
2022-08-17T18:56:58.974Z,29.62
2022-08-17T18:59:35.181Z,29.57
2022-08-17T19:02:09.976Z,29.55
2022-08-17T19:05:08.590Z,29.50
2022-08-17T19:07:45.995Z,29.45
2022-08-17T19:10:46.438Z,29.41
2022-08-17T19:13:25.630Z,29.38
2022-08-17T19:16:18.825Z,29.33
2022-08-17T19:18:56.039Z,29.30
2022-08-17T19:21:34.771Z,29.26
2022-08-17T19:24:24.817Z,29.22
2022-08-17T19:26:57.568Z,29.19
2022-08-17T19:29:54.846Z,29.17
2022-08-17T19:32:28.988Z,29.15
2022-08-17T19:34:57.389Z,29.13
2022-08-17T19:38:14.585Z,29.09
2022-08-17T19:41:07.394Z,29.07
2022-08-17T19:43:55.229Z,29.05
2022-08-17T19:46:59.512Z,29.03
2022-08-17T19:49:33.374Z,29.01
2022-08-17T19:52:46.945Z,28.99
2022-08-17T19:55:43.909Z,28.97
2022-08-17T19:58:39.730Z,28.94
2022-08-17T20:01:16.796Z,28.91
2022-08-17T20:04:13.708Z,28.89
2022-08-17T20:06:49.308Z,28.84
2022-08-17T20:09:41.185Z,28.79
2022-08-17T20:12:14.306Z,28.79
2022-08-17T20:14:55.817Z,28.77
2022-08-17T20:17:31.247Z,28.74
2022-08-17T20:20:19.834Z,28.71
2022-08-17T20:23:15.563Z,28.68
2022-08-17T20:26:19.144Z,28.66
2022-08-17T20:29:13.904Z,28.63
2022-08-17T20:31:56.220Z,28.59
2022-08-17T20:34:33.412Z,28.56
2022-08-17T20:37:28.160Z,28.54
2022-08-17T20:39:55.020Z,28.51
2022-08-17T20:42:22.084Z,28.51
2022-08-17T20:44:55.618Z,28.47
2022-08-17T20:47:55.367Z,28.45
2022-08-17T20:50:43.706Z,28.43
2022-08-17T20:53:32.255Z,28.42
2022-08-17T20:55:59.480Z,28.40
2022-08-17T20:58:29.961Z,28.38
2022-08-17T21:00:58.981Z,28.36
2022-08-17T21:03:50.481Z,28.35
2022-08-17T21:06:20.170Z,28.32
2022-08-17T21:09:18.758Z,28.30
2022-08-17T21:12:04.568Z,28.24
2022-08-17T21:14:54.218Z,28.19
2022-08-17T21:17:42.588Z,28.14
2022-08-17T21:20:34.710Z,28.05
2022-08-17T21:23:32.268Z,27.99
2022-08-17T21:26:17.698Z,27.94
2022-08-17T21:29:29.670Z,27.87
2022-08-17T21:32:01.768Z,27.81
2022-08-17T21:34:34.737Z,27.81
2022-08-17T21:37:20.227Z,27.76
2022-08-17T21:39:55.821Z,27.74
2022-08-17T21:42:32.138Z,27.69
2022-08-17T21:45:25.344Z,27.65
2022-08-17T21:48:11.165Z,27.63
2022-08-17T21:50:41.768Z,27.61
2022-08-17T21:53:22.207Z,27.56
2022-08-17T21:55:50.431Z,27.53
2022-08-17T21:58:40.359Z,27.46
2022-08-17T22:01:21.675Z,27.44
2022-08-17T22:04:02.220Z,27.41
2022-08-17T22:06:56.772Z,27.38
2022-08-17T22:09:47.429Z,27.33
2022-08-17T22:12:26.698Z,27.28
2022-08-17T22:15:02.389Z,27.26
2022-08-17T22:17:36.530Z,27.22
2022-08-17T22:20:20.593Z,27.19
2022-08-17T22:23:08.944Z,27.15
2022-08-17T22:25:41.231Z,27.13
2022-08-17T22:28:12.664Z,27.12
2022-08-17T22:30:59.156Z,27.10
2022-08-17T22:34:00.083Z,27.08
2022-08-17T22:36:38.984Z,27.04
2022-08-17T22:39:08.442Z,27.00
2022-08-17T22:41:48.145Z,26.98
2022-08-17T22:44:31.786Z,26.90
2022-08-17T22:47:11.525Z,26.86
2022-08-17T22:49:58.934Z,26.81
2022-08-17T22:53:16.051Z,26.80
2022-08-17T22:56:14.588Z,26.75
2022-08-17T22:59:14.435Z,26.69
2022-08-17T23:01:45.439Z,26.67
2022-08-17T23:04:36.995Z,26.61
2022-08-17T23:07:04.010Z,26.58
2022-08-17T23:09:30.990Z,26.56
2022-08-17T23:11:58.954Z,26.51
2022-08-17T23:14:31.496Z,26.48
2022-08-17T23:16:59.452Z,26.44
2022-08-17T23:19:28.553Z,26.42
2022-08-17T23:21:57.225Z,26.42
2022-08-17T23:24:35.679Z,26.44
2022-08-17T23:27:04.687Z,26.44
2022-08-17T23:29:31.773Z,26.42
2022-08-17T23:32:01.372Z,26.41
2022-08-17T23:34:28.859Z,26.42
2022-08-17T23:36:56.195Z,26.46
2022-08-17T23:39:28.122Z,26.46
2022-08-17T23:41:58.282Z,26.48
2022-08-17T23:44:27.171Z,26.46
2022-08-17T23:46:54.999Z,26.46
2022-08-17T23:49:23.440Z,26.48
2022-08-17T23:51:55.155Z,26.47
2022-08-17T23:54:43.770Z,26.44
2022-08-17T23:57:17.443Z,26.41
2022-08-17T23:59:45.425Z,26.37
